Main page
METAR-TAF:

METAR-TAF

Airports :

Agartala Airport

Agartala, India

latitude: 23-53-24N, longitude: 91-14-32E, elevation: 14 m

Current weather observation

The report was made 6 hours and 40 minutes ago, at 14:30 UTC
Calm wind
Temperature 21°C
Humidity 88%
Pressure 1012 hPa
Visibility: 3000 m
mist

METAR: VEAT 011430Z 00000KT 3000 BR NSC 21/19 Q1012 NOSIG

Time: 02:40 (21:10 UTC)

Forecast

The report was made 1 hour and 10 minutes ago, at 20:00 UTC
Forecast valid from 01 at 21 UTC to 02 at 06 UTC
Wind kt from the North
Visibility: 2500 m
Few clouds at a height of 2000 ft
Scattered clouds at a height of 10000 ft
mist
Becoming
from 02 at 01 UTC to 02 at 03 UTC
Visibility: 1500 m
mist
Becoming
from 02 at 04 UTC to 02 at 06 UTC
Visibility: 3000 m
Few clouds at a height of 2000 ft
mist, haze

TAF: VEAT 012000Z 0121/0206 00000KT 2500 BR FEW020 SCT100 BECMG 0201/0203 1500 BR BECMG 0204/0206 3000 BR HZ FEW020

Weather observations and forecasts of more than 4000 airports (METAR and TAF reports).

The available stations are represented by yellow and red dots on the map.

Hover mouse over dot to see the name of the station.

Then click to see weather observations and forecasts.

To change the map : click on the green buttons with a black cross to zoom in, on the green button with a dash to zoom out, or on the green arrows for adjacent maps.


METAR-TAF: